createdAt,value
2023-04-10T00:00:43.266Z,59.50
2023-04-10T00:03:11.829Z,60.00
2023-04-10T00:05:41.525Z,61.60
2023-04-10T00:08:09.461Z,62.00
2023-04-10T00:10:37.403Z,62.00
2023-04-10T00:13:05.537Z,62.30
2023-04-10T00:15:33.506Z,61.70
2023-04-10T00:18:01.576Z,60.50
2023-04-10T00:20:31.720Z,60.80
2023-04-10T00:23:01.133Z,62.10
2023-04-10T00:25:29.114Z,64.20
2023-04-10T00:27:57.055Z,63.80
2023-04-10T00:30:25.513Z,63.20
2023-04-10T00:32:53.505Z,63.20
2023-04-10T00:35:21.626Z,63.30
2023-04-10T00:37:50.311Z,63.80
2023-04-10T00:40:19.643Z,64.00
2023-04-10T00:42:47.814Z,64.70
2023-04-10T00:45:15.779Z,65.90
2023-04-10T00:47:43.791Z,65.90
2023-04-10T00:50:12.359Z,64.20
2023-04-10T00:52:40.506Z,64.10
2023-04-10T00:55:09.852Z,64.20
2023-04-10T00:57:39.292Z,64.50
2023-04-10T01:00:08.594Z,64.70
2023-04-10T01:02:36.776Z,65.10
2023-04-10T01:05:05.250Z,65.10
2023-04-10T01:07:52.946Z,65.90
2023-04-10T01:10:28.717Z,66.60
2023-04-10T01:13:07.779Z,66.70
2023-04-10T01:15:44.173Z,65.20
2023-04-10T01:18:17.276Z,65.40
2023-04-10T01:20:45.518Z,65.60
2023-04-10T01:23:54.367Z,66.10
2023-04-10T01:26:48.549Z,65.10
2023-04-10T01:29:21.184Z,63.90
2023-04-10T01:31:55.423Z,63.80
2023-04-10T01:34:27.108Z,65.00
2023-04-10T01:36:58.319Z,65.00
2023-04-10T01:39:28.647Z,63.90
2023-04-10T01:41:59.574Z,63.10
2023-04-10T01:44:32.134Z,64.50
2023-04-10T01:47:01.485Z,65.90
2023-04-10T01:49:31.375Z,65.20
2023-04-10T01:52:01.258Z,64.50
2023-04-10T01:54:29.841Z,64.10
2023-04-10T01:56:58.823Z,64.10
2023-04-10T01:59:28.463Z,64.70
2023-04-10T02:01:58.317Z,64.60
2023-04-10T02:04:27.830Z,63.70
2023-04-10T02:07:04.595Z,64.10
2023-04-10T02:09:47.041Z,64.20
2023-04-10T02:12:22.921Z,65.60
2023-04-10T02:14:54.083Z,66.40
2023-04-10T02:17:28.759Z,66.10
2023-04-10T02:19:57.479Z,65.40
2023-04-10T02:22:26.674Z,64.90
2023-04-10T02:24:55.377Z,65.10
2023-04-10T02:27:30.508Z,64.40
2023-04-10T02:29:59.811Z,64.10
2023-04-10T02:32:28.269Z,65.00
2023-04-10T02:34:57.147Z,65.10
2023-04-10T02:37:25.701Z,64.90
2023-04-10T02:39:54.732Z,66.60
2023-04-10T02:42:22.858Z,66.80
2023-04-10T02:44:50.829Z,65.60
2023-04-10T02:47:20.187Z,64.30
2023-04-10T02:49:48.359Z,64.10
2023-04-10T02:52:16.617Z,64.10
2023-04-10T02:54:44.746Z,65.10
2023-04-10T02:57:13.119Z,66.50
2023-04-10T02:59:41.214Z,65.90
2023-04-10T03:02:09.741Z,65.60
2023-04-10T03:04:39.158Z,65.70
2023-04-10T03:07:07.311Z,65.60
2023-04-10T03:09:35.341Z,65.80
2023-04-10T03:12:03.336Z,67.10
2023-04-10T03:14:31.572Z,68.10
2023-04-10T03:16:59.534Z,68.90
2023-04-10T03:19:28.159Z,68.80
2023-04-10T03:21:57.453Z,68.60
2023-04-10T03:24:25.832Z,67.90
2023-04-10T03:26:53.854Z,67.20
2023-04-10T03:29:22.673Z,66.50
2023-04-10T03:31:50.983Z,65.70
2023-04-10T03:34:19.094Z,65.10
2023-04-10T03:36:47.214Z,65.70
2023-04-10T03:39:16.503Z,67.70
2023-04-10T03:41:44.434Z,68.20
2023-04-10T03:44:12.437Z,68.50
2023-04-10T03:46:40.496Z,68.80
2023-04-10T03:49:08.522Z,68.60
2023-04-10T03:51:36.497Z,69.20
2023-04-10T03:54:04.865Z,69.00
2023-04-10T03:56:34.189Z,69.00
2023-04-10T03:59:02.237Z,69.50
2023-04-10T04:01:30.873Z,69.10
2023-04-10T04:03:59.336Z,69.10
2023-04-10T04:06:27.839Z,69.50
2023-04-10T04:08:55.837Z,69.80
2023-04-10T04:11:23.863Z,69.90
2023-04-10T04:13:53.629Z,69.60
2023-04-10T04:16:22.281Z,68.80
2023-04-10T04:18:50.246Z,69.00
2023-04-10T04:21:18.363Z,69.40
2023-04-10T04:23:46.302Z,69.80
2023-04-10T04:26:14.257Z,70.00
2023-04-10T04:28:42.244Z,69.60
2023-04-10T04:31:11.544Z,70.00
2023-04-10T04:33:39.474Z,70.10
2023-04-10T04:36:08.211Z,70.90
2023-04-10T04:38:36.220Z,70.90
2023-04-10T04:41:04.264Z,70.60
2023-04-10T04:43:32.269Z,71.00
2023-04-10T04:46:00.543Z,71.30
2023-04-10T04:48:29.869Z,71.40
2023-04-10T04:50:57.831Z,71.60
2023-04-10T04:53:25.912Z,71.40
2023-04-10T04:55:53.902Z,71.90
2023-04-10T04:58:23.711Z,72.90
2023-04-10T05:00:52.945Z,73.70
2023-04-10T05:03:21.226Z,74.20
2023-04-10T05:05:50.743Z,74.10
2023-04-10T05:08:18.708Z,74.10
2023-04-10T05:10:46.779Z,73.60
2023-04-10T05:13:17.474Z,73.40
2023-04-10T05:15:45.684Z,73.00
2023-04-10T05:18:14.326Z,72.30
2023-04-10T05:20:42.391Z,71.80
2023-04-10T05:23:11.753Z,71.30
2023-04-10T05:25:39.753Z,71.90
2023-04-10T05:28:07.723Z,73.20
2023-04-10T05:30:35.759Z,73.70
2023-04-10T05:33:03.785Z,74.50
2023-04-10T05:35:31.885Z,74.50
2023-04-10T05:38:00.714Z,73.90
2023-04-10T05:40:30.291Z,73.80
2023-04-10T05:42:58.681Z,73.60
2023-04-10T05:45:28.656Z,73.30
2023-04-10T05:47:56.730Z,72.90
2023-04-10T05:50:24.828Z,73.30
2023-04-10T05:52:52.836Z,73.80
2023-04-10T05:55:20.844Z,74.40
2023-04-10T05:57:51.419Z,74.50
2023-04-10T06:00:19.889Z,74.70
2023-04-10T06:02:48.035Z,75.20
2023-04-10T06:05:16.078Z,75.60
2023-04-10T06:07:44.041Z,75.10
2023-04-10T06:10:12.265Z,75.10
2023-04-10T06:12:40.518Z,75.60
2023-04-10T06:15:10.783Z,77.00
2023-04-10T06:17:43.602Z,76.50
2023-04-10T06:20:12.334Z,76.60
2023-04-10T06:22:40.716Z,76.10
2023-04-10T06:25:09.413Z,75.70
2023-04-10T06:27:37.586Z,75.40
2023-04-10T06:30:06.729Z,75.20
2023-04-10T06:32:36.216Z,74.90
2023-04-10T06:35:04.416Z,74.20
2023-04-10T06:37:33.017Z,73.90
2023-04-10T06:40:06.554Z,73.80
2023-04-10T06:42:34.550Z,73.30
2023-04-10T06:45:02.709Z,72.90
2023-04-10T06:47:31.029Z,72.30
2023-04-10T06:50:00.488Z,72.40
2023-04-10T06:52:28.626Z,72.10
2023-04-10T06:54:56.539Z,71.90
2023-04-10T06:57:24.508Z,71.00
2023-04-10T06:59:52.565Z,70.90
2023-04-10T07:02:20.646Z,70.60
2023-04-10T07:04:48.760Z,70.30
2023-04-10T07:07:19.348Z,69.80
2023-04-10T07:09:47.379Z,69.50
2023-04-10T07:12:15.460Z,68.60
2023-04-10T07:14:43.648Z,67.70
2023-04-10T07:17:11.607Z,67.30
2023-04-10T07:19:39.599Z,66.60
2023-04-10T07:22:08.124Z,66.30
2023-04-10T07:24:37.458Z,65.70
2023-04-10T07:27:05.521Z,65.20
2023-04-10T07:29:33.497Z,64.90
2023-04-10T07:32:01.820Z,63.90
2023-04-10T07:34:29.981Z,64.10
2023-04-10T07:36:58.120Z,63.90
2023-04-10T07:39:26.142Z,62.20
2023-04-10T07:41:55.957Z,61.70
2023-04-10T07:44:24.194Z,61.30
2023-04-10T07:46:52.324Z,60.50
2023-04-10T07:49:20.272Z,61.10
2023-04-10T07:51:48.211Z,60.90
2023-04-10T07:54:16.337Z,60.10
2023-04-10T07:56:44.300Z,58.90
2023-04-10T07:59:15.912Z,59.20
2023-04-10T08:01:44.081Z,58.40
2023-04-10T08:04:12.410Z,58.80
2023-04-10T08:06:40.441Z,57.90
2023-04-10T08:09:08.570Z,56.90
2023-04-10T08:11:38.588Z,57.00
2023-04-10T08:14:07.255Z,56.90
2023-04-10T08:16:38.586Z,56.40
2023-04-10T08:19:06.745Z,56.10
2023-04-10T08:21:34.716Z,56.50
2023-04-10T08:24:04.265Z,55.40
2023-04-10T08:26:32.290Z,55.10
2023-04-10T08:29:01.425Z,55.70
2023-04-10T08:31:30.434Z,54.30
2023-04-10T08:34:00.301Z,54.50
2023-04-10T08:36:29.305Z,53.70
2023-04-10T08:38:57.250Z,54.00
2023-04-10T08:41:25.265Z,53.90
2023-04-10T08:43:53.762Z,53.50
2023-04-10T08:46:24.756Z,53.30
2023-04-10T08:48:56.216Z,52.80
2023-04-10T08:51:31.469Z,52.50
2023-04-10T08:54:06.604Z,52.50
2023-04-10T08:56:36.032Z,52.30
2023-04-10T08:59:06.044Z,52.60
2023-04-10T09:01:35.064Z,50.60
2023-04-10T09:04:03.495Z,50.50
2023-04-10T09:06:32.883Z,49.90
2023-04-10T09:12:01.445Z,49.10
2023-04-10T09:14:31.892Z,49.00
2023-04-10T09:17:14.980Z,49.60
2023-04-10T09:19:43.984Z,48.60
2023-04-10T09:22:13.902Z,48.70
2023-04-10T09:24:44.110Z,49.30
2023-04-10T09:27:12.713Z,48.80
2023-04-10T09:29:45.705Z,46.90
2023-04-10T09:32:14.107Z,46.80
2023-04-10T09:34:56.862Z,45.60
2023-04-10T09:37:32.826Z,44.40
2023-04-10T09:40:00.941Z,44.60
2023-04-10T09:42:33.713Z,44.40
2023-04-10T09:45:02.482Z,43.80
2023-04-10T09:47:30.974Z,43.40
2023-04-10T09:50:01.421Z,43.80
2023-04-10T09:52:32.390Z,44.20
2023-04-10T09:55:02.502Z,45.10
2023-04-10T09:57:32.142Z,45.80
2023-04-10T10:00:04.252Z,42.40
2023-04-10T10:02:34.984Z,43.00
2023-04-10T10:05:06.412Z,42.10
2023-04-10T10:07:38.409Z,41.60
2023-04-10T10:10:09.012Z,42.60
2023-04-10T10:12:45.491Z,44.10
2023-04-10T10:15:19.299Z,43.20
2023-04-10T10:17:56.049Z,43.10
2023-04-10T10:20:26.179Z,44.00
2023-04-10T10:22:57.586Z,42.60
2023-04-10T10:25:26.489Z,41.70
2023-04-10T10:27:55.467Z,42.90
2023-04-10T10:30:30.214Z,43.00
2023-04-10T10:33:00.302Z,43.40
2023-04-10T10:35:29.933Z,42.10
2023-04-10T10:38:00.205Z,41.30
2023-04-10T10:40:33.083Z,41.80
2023-04-10T10:43:10.095Z,41.90
2023-04-10T10:45:45.397Z,41.60
2023-04-10T10:48:13.421Z,42.40
2023-04-10T10:50:57.961Z,43.20
2023-04-10T10:53:35.663Z,44.20
2023-04-10T10:56:39.862Z,43.80
2023-04-10T10:59:07.830Z,41.30
2023-04-10T11:01:35.973Z,41.50
2023-04-10T11:04:44.654Z,38.80
2023-04-10T11:07:13.220Z,39.70
2023-04-10T11:09:57.370Z,39.30
2023-04-10T11:12:26.208Z,37.10
2023-04-10T11:15:01.764Z,37.80
2023-04-10T11:17:49.746Z,37.80
2023-04-10T11:20:18.280Z,35.50
2023-04-10T11:23:08.347Z,34.90
2023-04-10T11:25:50.380Z,34.80
2023-04-10T11:28:37.470Z,34.90
2023-04-10T11:31:19.772Z,34.60
2023-04-10T11:33:49.525Z,36.60
2023-04-10T11:36:18.595Z,34.70
2023-04-10T11:38:57.537Z,35.50
2023-04-10T11:41:31.323Z,35.00
2023-04-10T11:43:59.803Z,33.70
2023-04-10T11:46:28.113Z,32.60
2023-04-10T11:48:58.276Z,33.50
2023-04-10T11:51:27.428Z,34.60
2023-04-10T11:54:09.743Z,33.10
2023-04-10T11:56:39.982Z,34.20
2023-04-10T11:59:10.709Z,32.60
2023-04-10T12:01:42.778Z,33.90
2023-04-10T12:04:18.879Z,34.40
2023-04-10T12:06:48.407Z,34.70
2023-04-10T12:09:17.493Z,33.40
2023-04-10T12:11:59.533Z,33.40
2023-04-10T12:14:32.042Z,34.00
2023-04-10T12:17:00.973Z,33.10
2023-04-10T12:19:29.502Z,33.40
2023-04-10T12:21:59.559Z,33.90
2023-04-10T12:24:44.348Z,33.60
2023-04-10T12:27:18.900Z,34.10
2023-04-10T12:29:47.563Z,35.20
2023-04-10T12:32:16.376Z,34.50
2023-04-10T12:34:51.219Z,34.60
2023-04-10T12:37:19.261Z,34.40
2023-04-10T12:39:47.377Z,34.00
2023-04-10T12:42:16.584Z,34.30
2023-04-10T12:44:56.770Z,34.10
2023-04-10T12:47:25.425Z,33.00
2023-04-10T12:50:07.728Z,33.80
2023-04-10T12:52:36.461Z,33.00
2023-04-10T12:55:15.634Z,33.10
2023-04-10T12:57:45.109Z,33.10
2023-04-10T13:00:18.496Z,32.40
2023-04-10T13:02:47.667Z,33.40
2023-04-10T13:05:16.548Z,33.60
2023-04-10T13:07:44.619Z,33.90
2023-04-10T13:10:12.820Z,33.60
2023-04-10T13:12:42.075Z,32.00
2023-04-10T13:15:10.825Z,31.30
2023-04-10T13:17:41.834Z,31.90
2023-04-10T13:20:11.323Z,31.90
2023-04-10T13:22:39.276Z,30.80
2023-04-10T13:25:07.839Z,32.20
2023-04-10T13:27:35.842Z,31.00
2023-04-10T13:30:03.895Z,30.60
2023-04-10T13:32:32.226Z,30.30
2023-04-10T13:35:01.560Z,30.20
2023-04-10T13:37:29.501Z,30.30
2023-04-10T13:39:57.429Z,29.90
2023-04-10T13:42:25.379Z,30.00
2023-04-10T13:44:53.333Z,29.70
2023-04-10T13:47:21.291Z,30.00
2023-04-10T13:49:49.238Z,29.70
2023-04-10T13:52:18.661Z,29.70
2023-04-10T13:54:47.605Z,28.90
2023-04-10T13:57:15.599Z,29.00
2023-04-10T13:59:43.655Z,28.30
2023-04-10T14:02:11.878Z,28.70
2023-04-10T14:04:39.876Z,28.80
2023-04-10T14:07:09.692Z,28.80
2023-04-10T14:09:39.190Z,28.60
2023-04-10T14:12:07.168Z,28.40
2023-04-10T14:14:35.219Z,29.20
2023-04-10T14:17:03.269Z,29.10
2023-04-10T14:19:31.373Z,29.20
2023-04-10T14:21:59.319Z,29.30
2023-04-10T14:24:27.267Z,28.80
2023-04-10T14:26:58.484Z,28.90
2023-04-10T14:29:37.286Z,28.90
2023-04-10T14:32:08.696Z,28.40
2023-04-10T14:34:36.709Z,28.30
2023-04-10T14:37:04.705Z,28.70
2023-04-10T14:39:33.893Z,27.90
2023-04-10T14:42:03.335Z,28.50
2023-04-10T14:44:31.518Z,28.10
2023-04-10T14:46:59.707Z,28.10
2023-04-10T14:49:27.671Z,28.80
2023-04-10T14:51:55.637Z,28.20
2023-04-10T14:54:24.211Z,28.70
2023-04-10T14:56:52.319Z,28.20
2023-04-10T14:59:21.608Z,27.90
2023-04-10T15:01:49.640Z,27.00
2023-04-10T15:04:17.756Z,25.90
2023-04-10T15:06:45.768Z,25.70
2023-04-10T15:09:13.704Z,25.40
2023-04-10T15:11:41.662Z,25.20
2023-04-10T15:14:09.640Z,25.20
2023-04-10T15:16:39.025Z,25.00
2023-04-10T15:19:07.035Z,25.20
2023-04-10T15:21:35.176Z,24.90
2023-04-10T15:24:03.148Z,25.20
2023-04-10T15:26:31.231Z,26.00
2023-04-10T15:28:59.159Z,26.60
2023-04-10T15:31:27.435Z,27.60
2023-04-10T15:33:58.832Z,28.10
2023-04-10T15:36:28.055Z,27.80
2023-04-10T15:38:56.017Z,28.30
2023-04-10T15:41:23.980Z,28.60
2023-04-10T15:43:51.980Z,29.60
2023-04-10T15:46:19.999Z,29.80
2023-04-10T15:48:47.961Z,29.60
2023-04-10T15:51:17.271Z,30.60
2023-04-10T15:53:45.205Z,31.30
2023-04-10T15:56:16.006Z,31.90
2023-04-10T15:58:44.536Z,31.80
2023-04-10T16:01:12.544Z,32.90
2023-04-10T16:03:40.817Z,33.10
2023-04-10T16:06:09.668Z,32.80
2023-04-10T16:08:38.963Z,32.40
2023-04-10T16:11:07.583Z,34.80
2023-04-10T16:13:35.585Z,34.80
2023-04-10T16:16:04.608Z,33.50
2023-04-10T16:18:32.624Z,34.50
2023-04-10T16:21:00.566Z,36.40
2023-04-10T16:23:28.515Z,35.20
2023-04-10T16:25:57.954Z,35.70
2023-04-10T16:28:26.053Z,35.40
2023-04-10T16:30:54.123Z,35.50
2023-04-10T16:33:22.075Z,35.80
2023-04-10T16:35:50.056Z,36.60
2023-04-10T16:38:18.029Z,36.90
2023-04-10T16:40:46.067Z,36.80
2023-04-10T16:43:15.374Z,37.30
2023-04-10T16:45:43.491Z,37.30
2023-04-10T16:48:11.535Z,37.20
2023-04-10T16:50:39.569Z,38.00
2023-04-10T16:53:07.495Z,38.10
2023-04-10T16:55:35.523Z,38.10
2023-04-10T16:58:03.513Z,38.80
2023-04-10T17:00:32.954Z,38.90
2023-04-10T17:03:01.062Z,38.80
2023-04-10T17:05:35.405Z,39.30
2023-04-10T17:08:03.946Z,39.90
2023-04-10T17:10:31.914Z,40.50
2023-04-10T17:12:59.933Z,40.40
2023-04-10T17:15:27.885Z,39.90
2023-04-10T17:17:57.220Z,40.30
2023-04-10T17:20:25.248Z,39.80
2023-04-10T17:22:53.214Z,42.20
2023-04-10T17:25:21.191Z,41.40
2023-04-10T17:27:49.157Z,42.20
2023-04-10T17:30:17.218Z,41.70
2023-04-10T17:32:45.258Z,41.70
2023-04-10T17:35:14.633Z,41.70
2023-04-10T17:37:42.606Z,41.20
2023-04-10T17:40:11.732Z,41.20
2023-04-10T17:42:39.668Z,40.50
2023-04-10T17:45:08.667Z,40.00
2023-04-10T17:47:36.790Z,39.90
2023-04-10T17:50:05.140Z,40.50
2023-04-10T17:52:34.556Z,40.90
2023-04-10T17:55:02.574Z,41.50
2023-04-10T17:57:30.556Z,41.40
2023-04-10T17:59:58.624Z,41.40
2023-04-10T18:02:26.680Z,42.00
2023-04-10T18:04:54.710Z,42.20
2023-04-10T18:07:22.676Z,42.50
2023-04-10T18:09:52.090Z,42.60
2023-04-10T18:12:20.071Z,43.30
2023-04-10T18:14:48.542Z,43.00
2023-04-10T18:17:16.500Z,42.90
2023-04-10T18:19:44.467Z,42.90
2023-04-10T18:22:12.537Z,43.50
2023-04-10T18:24:40.552Z,44.10
2023-04-10T18:27:09.860Z,44.30
2023-04-10T18:29:37.884Z,45.10
2023-04-10T18:32:07.613Z,44.40
2023-04-10T18:34:36.011Z,42.50
2023-04-10T18:37:03.983Z,42.70
2023-04-10T18:39:32.831Z,42.90
2023-04-10T18:42:02.797Z,42.90
2023-04-10T18:44:34.570Z,43.50
2023-04-10T18:47:04.615Z,43.60
2023-04-10T18:49:33.207Z,43.70
2023-04-10T18:52:01.890Z,43.90
2023-04-10T18:54:30.767Z,44.10
2023-04-10T18:56:58.916Z,44.30
2023-04-10T18:59:28.452Z,45.00
2023-04-10T19:01:57.856Z,44.50
2023-04-10T19:04:26.095Z,44.90
2023-04-10T19:06:54.078Z,45.00
2023-04-10T19:09:22.074Z,46.10
2023-04-10T19:11:50.150Z,45.80
2023-04-10T19:14:18.080Z,47.30
2023-04-10T19:16:46.091Z,47.10
2023-04-10T19:19:15.814Z,47.70
2023-04-10T19:21:43.768Z,47.70
2023-04-10T19:24:11.835Z,48.10
2023-04-10T19:26:39.865Z,48.80
2023-04-10T19:29:08.911Z,49.10
2023-04-10T19:31:37.043Z,48.90
2023-04-10T19:34:09.172Z,49.30
2023-04-10T19:36:38.905Z,50.10
2023-04-10T19:39:07.074Z,49.60
2023-04-10T19:41:37.138Z,50.00
2023-04-10T19:44:06.152Z,50.10
2023-04-10T19:46:34.159Z,50.00
2023-04-10T19:49:02.111Z,50.30
2023-04-10T19:51:32.225Z,50.30
2023-04-10T19:54:01.589Z,50.00
2023-04-10T19:56:29.591Z,49.20
2023-04-10T19:58:57.960Z,50.00
2023-04-10T20:01:26.230Z,50.10
2023-04-10T20:03:54.397Z,50.30
2023-04-10T20:06:22.831Z,50.20
2023-04-10T20:08:50.940Z,50.10
2023-04-10T20:11:20.272Z,50.50
2023-04-10T20:13:48.270Z,51.20
2023-04-10T20:16:16.356Z,51.10
2023-04-10T20:18:44.420Z,51.90
2023-04-10T20:21:12.365Z,52.60
2023-04-10T20:23:40.334Z,52.90
2023-04-10T20:26:09.262Z,51.90
2023-04-10T20:28:38.600Z,51.90
2023-04-10T20:31:06.734Z,52.20
2023-04-10T20:33:35.067Z,52.50
2023-04-10T20:36:03.214Z,52.60
2023-04-10T20:38:31.265Z,51.90
2023-04-10T20:40:59.321Z,51.70
2023-04-10T20:43:27.363Z,52.40
2023-04-10T20:45:56.694Z,53.40
2023-04-10T20:48:24.640Z,51.70
2023-04-10T20:50:53.029Z,51.90
2023-04-10T20:53:21.338Z,52.80
2023-04-10T20:55:54.043Z,51.30
2023-04-10T20:58:22.368Z,50.70
2023-04-10T21:00:52.541Z,50.50
2023-04-10T21:03:22.341Z,50.50
2023-04-10T21:05:54.897Z,49.60
2023-04-10T21:08:22.920Z,49.80
2023-04-10T21:10:51.388Z,50.50
2023-04-10T21:13:24.274Z,50.50
2023-04-10T21:15:53.113Z,51.70
2023-04-10T21:18:25.349Z,53.30
2023-04-10T21:20:53.381Z,54.50
2023-04-10T21:23:21.433Z,54.10
2023-04-10T21:25:53.603Z,54.90
2023-04-10T21:28:21.678Z,55.40
2023-04-10T21:30:49.644Z,56.30
2023-04-10T21:33:17.588Z,56.70
2023-04-10T21:35:46.985Z,57.40
2023-04-10T21:38:14.985Z,57.60
2023-04-10T21:40:43.161Z,57.50
2023-04-10T21:43:11.428Z,58.10
2023-04-10T21:45:39.867Z,58.70
2023-04-10T21:48:07.924Z,58.90
2023-04-10T21:50:36.127Z,58.20
2023-04-10T21:53:05.448Z,57.60
2023-04-10T21:55:33.367Z,57.90
2023-04-10T21:58:01.290Z,58.70
2023-04-10T22:00:29.357Z,58.90
2023-04-10T22:02:57.664Z,58.90
2023-04-10T22:05:25.924Z,58.90
2023-04-10T22:07:54.017Z,59.00
2023-04-10T22:10:23.357Z,59.30
2023-04-10T22:12:51.289Z,59.30
2023-04-10T22:15:19.370Z,59.60
2023-04-10T22:17:47.406Z,59.50
2023-04-10T22:20:15.490Z,59.20
2023-04-10T22:22:43.666Z,59.40
2023-04-10T22:25:11.673Z,59.70
2023-04-10T22:27:41.006Z,60.30
2023-04-10T22:30:10.081Z,60.80
2023-04-10T22:32:38.333Z,61.40
2023-04-10T22:35:07.489Z,62.00
2023-04-10T22:37:35.556Z,62.30
2023-04-10T22:40:03.613Z,62.20
2023-04-10T22:42:32.067Z,62.00
2023-04-10T22:45:01.459Z,62.20
2023-04-10T22:47:29.786Z,62.60
2023-04-10T22:49:58.389Z,64.10
2023-04-10T22:52:26.320Z,63.70
2023-04-10T22:54:54.369Z,62.90
2023-04-10T22:57:23.173Z,62.80
2023-04-10T22:59:51.268Z,63.20
2023-04-10T23:02:20.616Z,63.60
2023-04-10T23:04:48.673Z,63.60
2023-04-10T23:07:16.678Z,63.40
2023-04-10T23:09:44.779Z,63.40
2023-04-10T23:12:12.762Z,63.60
2023-04-10T23:14:40.699Z,63.20
2023-04-10T23:17:08.793Z,62.70
2023-04-10T23:19:38.076Z,62.90
2023-04-10T23:22:06.109Z,63.70
2023-04-10T23:24:34.080Z,64.30
2023-04-10T23:27:02.030Z,64.40
2023-04-10T23:29:30.033Z,64.20
2023-04-10T23:31:57.969Z,64.70
2023-04-10T23:34:26.654Z,65.10
2023-04-10T23:36:56.926Z,65.20
2023-04-10T23:39:24.964Z,65.30
2023-04-10T23:41:52.956Z,65.40
2023-04-10T23:44:20.962Z,65.10
2023-04-10T23:46:49.455Z,66.20
2023-04-10T23:49:17.883Z,66.70
2023-04-10T23:51:46.648Z,65.80
2023-04-10T23:54:16.714Z,65.10
2023-04-10T23:56:44.665Z,64.90
2023-04-10T23:59:17.073Z,65.20
